Airfield :
LOGIN :

Register | Disclaimer

   EN    FR    IT 

 










Legend :    VFR   Marginal VFR   IFR   Intensive IFR   Very Intensive IFR
Visi :
Ceiling :
>= 8 km
>= 3000ft
5 to 8 km
1000 to 3000 ft
1500m to 5 km
500 to 1000 ft
800 to 1500m
200 to 500 ft
< 800m
< 200 ft
Symbols :   Thunderstorms  Fog  Heavy snow  Heavy precipitations  Wind > 20 kt
SIGMETs :     Misc.  Thunderstorms  Icing  Turbulence  Mountain Waves  Volcanic Ashes







- Airport Elevation : 36 ft
- IATA code : LTQ
- Download approach charts


LFAT - Le Touquet

CURRENT METAR :
  • 281230Z AUTO 23015KT 9999 BKN016 OVC050 18/14 Q1013 NOSIG

EXPIRED METARs :
  • 281200Z AUTO 24014KT 210V270 9999 BKN016 BKN025 BKN048 19/14 Q1013 NOSIG
  • 281130Z AUTO 24016KT 210V270 9999 BKN018 BKN026 BKN060 19/14 Q1013 NOSIG
  • 281100Z AUTO 24016KT 210V270 9999 BKN020 BKN068 OVC086 19/14 Q1013 TEMPO BKN013
  • 281030Z AUTO 24013G25KT 200V270 9999 BKN020 OVC025 19/14 Q1013 TEMPO BKN013
  • 281000Z AUTO 24015KT 200V290 9999 BKN019 BKN037 OVC088 19/14 Q1012 TEMPO BKN013

TAF TAF LFAT
Valid from the 28 at 09:00 until the 28 at 18:00 UTC


280800Z 2809/2818 24013KT 9999 SCT017 BKN050
PROB30
TEMPO 2809/2813 BKN013
ATIS : +33 3 21 06 62 84
No reported NOTAMs for that airfield.



MET'MAP, your aeronautical weather chart ! - Copyright ORBIFLY December 2007 - Disclaimer

ORBIFLY MET'MAP TEAM :

Programming & Development : Alexandra Zaïnal
Concept & Development : Baudouin d'Aumeries
Co-Development & Prog : Marc-Olivier Méhu
Technical & hardware support : Manuel Goepfert

Contact : metmap@orbifly.com




SOURCES & CREDITS :

   NOAA